NCAR-RAP Real-Time Weather Data

Output produced by METARs form (17 December 2018  15:21 UTC)
found at http://weather.rap.ucar.edu/surface/
 
RJFU 171200Z 31016KT 9999 FEW040 BKN050 BKN070 11/01 Q1019
RJFU 171100Z 33010KT 9999 FEW040 SCT060 BKN070 10/02 Q1018
RJFU 171000Z 34013KT 9999 FEW040 BKN050 10/02 Q1018
RJFU 170900Z 30011KT 9999 FEW040 SCT060 BKN070 11/02 Q1017
RJFU 170800Z 31016KT 9999 FEW040 SCT060 BKN070 11/02 Q1017
RJFU 170700Z 31017KT 9999 FEW040 BKN060 11/01 Q1017
RJFU 170600Z 31017KT 9999 FEW040 BKN050 12/02 Q1016
RJFU 170500Z 32021KT 9999 FEW035 SCT045 12/02 Q1016
RJFU 170400Z 31022KT 9999 FEW035 SCT045 BKN050 12/01 Q1016
RJFU 170300Z 32023KT 9999 FEW035 SCT045 13/01 Q1017
RJFU 170200Z 32021KT 9999 FEW035 SCT050 BKN070 12/03 Q1017
RJFU 170100Z 33014KT 9999 FEW035 SCT040 BKN050 11/04 Q1017
RJFU 170000Z 33011KT 9999 FEW035 BKN050 BKN070 11/04 Q1017
RJFU 162300Z 34012KT 9999 FEW030 BKN050 BKN060 10/04 Q1017
RJFU 162200Z 32018KT 9999 FEW030 BKN050 BKN060 11/04 Q1016
RJFU 162110Z 30014KT 9999 FEW030 SCT040 BKN050 11/05 Q1016 RMK 1CU030 3CU040 7SC050 A3000
RJFU 161200Z 36012KT 9999 -SHRA FEW010 BKN040 BKN050 10/09 Q1015
RJFU 161100Z 36014KT 9999 -SHRA FEW020 SCT035 BKN045 10/10 Q1016
RJFU 161000Z 35014KT 9999 -SHRA FEW010 BKN035 BKN040 11/10 Q1016
RJFU 160900Z 36012KT 8000 -SHRA FEW002 SCT010 BKN020 11/10 Q1016
RJFU 160846Z 01010KT 7000 SHRA FEW002 SCT005 BKN010 11/10 Q1016 RMK 1ST002 3ST005 5CU010 A3000
RJFU 160838Z 01010KT 6000 -SHRA FEW002 SCT005 BKN010 10/10 Q1016 RMK 1ST002 3ST005 5CU010 A3000
RJFU 160822Z 14005KT 4500 SHRA BR FEW004 SCT010 BKN015 10/10 Q1016 RMK 1ST004 4CU010 6CU015 A3001
RJFU 160809Z 15008KT 5000 -SHRA BR FEW005 BKN015 BKN025 10/10 Q1016 RMK 1ST005 5CU015 7CU025 A3000
RJFU 160800Z 15011KT 4500 SHRA BR FEW005 BKN015 BKN025 10/10 Q1015
RJFU 160748Z 14012KT 4500 SHRA BR FEW005 SCT025 BKN030 10/10 Q1015 RMK 1ST005 3CU025 7CU030 A3000
RJFU 160700Z 15012KT 6000 -SHRA FEW005 SCT010 BKN020 10/10 Q1016
RJFU 160600Z 14013KT 6000 -SHRA FEW008 BKN025 BKN035 11/10 Q1016
RJFU 160500Z 15015KT 9999 FEW008 SCT050 BKN070 10/09 Q1017
RJFU 160400Z 14012KT 9999 FEW007 SCT015 BKN070 10/09 Q1018
RJFU 160300Z 14015KT 9999 FEW005 SCT015 BKN080 09/08 Q1020
RJFU 160200Z 14016KT 9999 -RA FEW005 BKN050 BKN080 09/08 Q1021
RJFU 160100Z 15012KT 8000 -SHRA FEW004 SCT040 BKN050 08/08 Q1022
RJFU 160000Z 13009KT 8000 -SHRA FEW010 SCT030 BKN050 08/07 Q1023
RJFU 151200Z 15005KT CAVOK 06/05 Q1027
RJFU 151100Z 14004KT 9999 FEW030 07/04 Q1028
RJFU 151000Z 08004KT 9999 FEW035 07/04 Q1028
RJFU 150900Z 05005KT 9999 FEW035 09/02 Q1027
RJFU 150800Z VRB02KT 9999 FEW040 09/03 Q1027
RJFU 150700Z 26003KT 230V300 9999 FEW040 12/03 Q1027
RJFU 150600Z 27005KT 230V300 9999 FEW040 12/03 Q1027
RJFU 150500Z 22004KT 180V260 9999 FEW040 12/02 Q1028
RJFU 150400Z 19004KT 9999 FEW040 11/02 Q1029